»·PEaware :: XOJ550 KIAD-KSJC

XOJ550 :: KIAD-KSJC

FLIGHT INFORMATION

Flight Status: Arrived
Operator:
XOJET
More flights by this operator :: More flights under this callsign
Pilot: Charles S. (11412)
Aircraft: BOMBARDIER BD-100 CHALLENGER 300
(CL30)
More flights by this aircraft type
Origin: KIAD Washington Dulles Intl
United States
Destination: KSJC Mineta San Jose Intl
United States
More flights between these airports :: More routes between these airports
Route: RNLDI4 OTTTO COLNS J134 STL J110 GCK J28 MLF J80 ILC KNGRY RAZRR4
File this flight plan on PilotEdge
Remarks:
Altitude:
(Current/Filed)
43,000ft
Speed:
(Current/Filed)
270kts
Departed: 16-Sep-18 09:14 AM
Arrived: 16-Sep-18 02:20 PM
Distance/Time
Traveled:
2080nm/5:05
Distance/Time
To Go:
Arrived

Flight Plot

Page will automatically refresh every two minutes.

Flight plan parsing failed; only flown route is shown


Map Options




Map Legend


Flown Route
Filed Route
Departure Airport
Arrival Airport
Navaid (VOR, NDB)
Fix

Horizontal Profiles

Position Reports

Time Latitude Longitude Heading Altitude Ground
Speed
16-Sep-18 09:13 38.939346 -77.439829 181 302ft 42kts
16-Sep-18 09:14 38.928230 -77.439991 181 305ft 32kts
16-Sep-18 09:15 38.924242 -77.437154 91 311ft 20kts
16-Sep-18 09:16 38.929129 -77.436383 1 312ft 107kts
16-Sep-18 09:17 38.961260 -77.440559 322 2222ft 197kts
16-Sep-18 09:18 38.950818 -77.517171 247 5902ft 230kts
16-Sep-18 09:19 38.931623 -77.581110 248 8466ft 240kts
16-Sep-18 09:20 38.909502 -77.661034 247 11505ft 251kts
16-Sep-18 09:21 38.875149 -77.744967 230 13880ft 311kts
16-Sep-18 09:22 38.819183 -77.844717 231 15814ft 369kts
16-Sep-18 09:23 38.804509 -77.970775 280 17822ft 389kts
16-Sep-18 09:24 38.831817 -78.105468 284 19825ft 398kts
16-Sep-18 09:25 38.852054 -78.245001 268 21847ft 403kts
16-Sep-18 09:26 38.851961 -78.390126 267 23865ft 412kts
16-Sep-18 09:27 38.850520 -78.538161 267 25874ft 423kts
16-Sep-18 09:28 38.848588 -78.687997 267 27762ft 433kts
16-Sep-18 09:29 38.846355 -78.843098 267 29584ft 440kts
16-Sep-18 09:30 38.843847 -79.000055 267 31386ft 441kts
16-Sep-18 09:31 38.841139 -79.156426 267 33171ft 440kts
16-Sep-18 09:32 38.838226 -79.312295 267 34962ft 434kts
16-Sep-18 09:33 38.835162 -79.465597 267 36747ft 426kts
16-Sep-18 09:34 38.831968 -79.615412 267 38247ft 423kts
16-Sep-18 09:35 38.828436 -79.771476 267 38263ft 455kts
16-Sep-18 09:36 38.824442 -79.937966 267 38262ft 482kts
16-Sep-18 09:37 38.820069 -80.110096 267 38252ft 477kts
16-Sep-18 09:38 38.815572 -80.277094 267 38249ft 470kts
16-Sep-18 09:39 38.810821 -80.444582 267 38234ft 472kts
16-Sep-18 09:40 38.805845 -80.611626 267 38224ft 471kts
16-Sep-18 09:41 38.800622 -80.779079 266 38207ft 471kts
16-Sep-18 09:42 38.795197 -80.945657 266 38191ft 471kts
16-Sep-18 09:43 38.789509 -81.113022 265 38188ft 469kts
16-Sep-18 09:44 38.783617 -81.278443 265 38184ft 468kts
16-Sep-18 09:45 38.777448 -81.445434 265 38181ft 468kts
16-Sep-18 09:46 38.771075 -81.611522 265 38180ft 468kts
16-Sep-18 09:47 38.765075 -81.762762 265 38167ft 468kts
16-Sep-18 09:48 38.758307 -81.927195 264 38168ft 468kts
16-Sep-18 09:49 38.751718 -82.092954 265 38173ft 468kts
16-Sep-18 09:50 38.745499 -82.259073 265 38156ft 468kts
16-Sep-18 09:51 38.739104 -82.424202 265 38150ft 468kts
16-Sep-18 09:52 38.732418 -82.590660 265 38145ft 469kts
16-Sep-18 09:53 38.725578 -82.755228 264 38150ft 468kts
16-Sep-18 09:54 38.718503 -82.920691 263 38157ft 466kts
16-Sep-18 09:55 38.711178 -83.085631 263 38156ft 462kts
16-Sep-18 09:56 38.703673 -83.248745 263 38156ft 462kts
16-Sep-18 09:57 38.695944 -83.412408 262 38156ft 462kts
16-Sep-18 09:58 38.687996 -83.575799 263 38155ft 462kts
16-Sep-18 09:59 38.680169 -83.732425 262 38159ft 462kts
16-Sep-18 10:00 38.672395 -83.883956 262 38154ft 461kts
16-Sep-18 10:01 38.664574 -84.032656 262 38160ft 461kts
16-Sep-18 10:02 38.655758 -84.196078 262 38161ft 462kts
16-Sep-18 10:03 38.653006 -84.360114 270 38161ft 466kts
16-Sep-18 10:04 38.662363 -84.524682 270 38156ft 466kts
16-Sep-18 10:05 38.671770 -84.687608 270 38155ft 466kts
16-Sep-18 10:06 38.681089 -84.852607 271 38148ft 469kts
16-Sep-18 10:07 38.690340 -85.018937 271 38145ft 469kts
16-Sep-18 10:08 38.699322 -85.185424 271 38148ft 471kts
16-Sep-18 10:09 38.708119 -85.352513 271 38147ft 471kts
16-Sep-18 10:10 38.716631 -85.519113 271 38147ft 471kts
16-Sep-18 10:11 38.724907 -85.685901 270 38147ft 470kts
16-Sep-18 10:12 38.732962 -85.852990 270 38147ft 470kts
16-Sep-18 10:13 38.740772 -86.020043 270 38138ft 470kts
16-Sep-18 10:14 38.748333 -86.186925 270 38123ft 470kts
16-Sep-18 10:15 38.755648 -86.353621 270 38125ft 470kts
16-Sep-18 10:16 38.762733 -86.520542 270 38127ft 470kts
16-Sep-18 10:17 38.769564 -86.687209 270 38127ft 470kts
16-Sep-18 10:18 38.776176 -86.854354 270 38115ft 470kts
16-Sep-18 10:19 38.782453 -87.020269 271 38154ft 463kts
16-Sep-18 10:20 38.788508 -87.184887 272 38657ft 466kts
16-Sep-18 10:21 38.794398 -87.351031 272 39156ft 466kts
16-Sep-18 10:22 38.800000 -87.516223 272 39650ft 466kts
16-Sep-18 10:23 38.805351 -87.681066 271 40106ft 467kts
16-Sep-18 10:24 38.810514 -87.847249 271 40115ft 465kts
16-Sep-18 10:25 38.815349 -88.010379 271 40112ft 465kts
16-Sep-18 10:26 38.819983 -88.174474 271 40109ft 465kts
16-Sep-18 10:27 38.824394 -88.338966 271 40109ft 465kts
16-Sep-18 10:28 38.828592 -88.504010 271 40109ft 465kts
16-Sep-18 10:29 38.832485 -88.665967 271 40110ft 465kts
16-Sep-18 10:30 38.836238 -88.831748 271 40110ft 465kts
16-Sep-18 10:31 38.839730 -88.996798 271 40110ft 464kts
16-Sep-18 10:32 38.843022 -89.161718 271 40108ft 464kts
16-Sep-18 10:33 38.846048 -89.326768 271 40108ft 464kts
16-Sep-18 10:34 38.848837 -89.491870 271 40119ft 464kts
16-Sep-18 10:35 38.851381 -89.656179 270 40124ft 464kts
16-Sep-18 10:36 38.853700 -89.820550 270 40128ft 464kts
16-Sep-18 10:37 38.855793 -89.985567 270 40128ft 464kts
16-Sep-18 10:38 38.857655 -90.150888 270 40127ft 464kts
16-Sep-18 10:39 38.859282 -90.316012 270 40124ft 464kts
16-Sep-18 10:40 38.858899 -90.481119 263 40109ft 464kts
16-Sep-18 10:41 38.839652 -90.642615 261 40116ft 464kts
16-Sep-18 10:42 38.818728 -90.805348 260 40119ft 465kts
16-Sep-18 10:43 38.797362 -90.967769 260 40118ft 464kts
16-Sep-18 10:44 38.775627 -91.130784 260 40118ft 463kts
16-Sep-18 10:45 38.753740 -91.293147 260 40121ft 463kts
16-Sep-18 10:46 38.731705 -91.454837 260 40126ft 463kts
16-Sep-18 10:47 38.709419 -91.616618 260 40127ft 463kts
16-Sep-18 10:48 38.687494 -91.773623 260 40126ft 463kts
16-Sep-18 10:49 38.664579 -91.934356 260 40119ft 463kts
16-Sep-18 10:50 38.641255 -92.096240 260 40124ft 463kts
16-Sep-18 10:51 38.618045 -92.256950 260 40125ft 463kts
16-Sep-18 10:52 38.594587 -92.418068 260 40122ft 463kts
16-Sep-18 10:53 38.570949 -92.578816 260 40118ft 463kts
16-Sep-18 10:54 38.547175 -92.738895 259 40129ft 463kts
16-Sep-18 10:55 38.522964 -92.900317 259 40146ft 463kts
16-Sep-18 10:56 38.498751 -93.060118 259 40146ft 462kts
16-Sep-18 10:57 38.474158 -93.220990 260 40143ft 462kts
16-Sep-18 10:58 38.449400 -93.381394 260 40133ft 462kts
16-Sep-18 10:59 38.424540 -93.540911 260 40125ft 462kts
16-Sep-18 11:00 38.399761 -93.698430 259 40128ft 462kts
16-Sep-18 11:01 38.374275 -93.858972 259 40119ft 462kts
16-Sep-18 11:02 38.348582 -94.019297 259 40136ft 462kts
16-Sep-18 11:03 38.322762 -94.178969 259 40140ft 462kts
16-Sep-18 11:04 38.296701 -94.338688 259 40145ft 462kts
16-Sep-18 11:05 38.273134 -94.498245 267 40146ft 461kts
16-Sep-18 11:06 38.267055 -94.660790 268 40136ft 461kts
16-Sep-18 11:07 38.261641 -94.823153 268 40116ft 461kts
16-Sep-18 11:08 38.256215 -94.984396 268 40093ft 458kts
16-Sep-18 11:09 38.250601 -95.145435 268 40091ft 457kts
16-Sep-18 11:10 38.244763 -95.306751 268 40091ft 458kts
16-Sep-18 11:11 38.238710 -95.467947 268 40090ft 458kts
16-Sep-18 11:12 38.232479 -95.628059 268 40100ft 457kts
16-Sep-18 11:13 38.225964 -95.789682 267 40119ft 458kts
16-Sep-18 11:14 38.219294 -95.949757 267 40119ft 458kts
16-Sep-18 11:15 38.212362 -96.110861 267 40119ft 458kts
16-Sep-18 11:16 38.205167 -96.272871 267 40118ft 458kts
16-Sep-18 11:17 38.197791 -96.433976 267 40118ft 458kts
16-Sep-18 11:18 38.190191 -96.595122 267 40107ft 458kts
16-Sep-18 11:19 38.182374 -96.756081 267 40094ft 458kts
16-Sep-18 11:20 38.174368 -96.916209 267 40112ft 458kts
16-Sep-18 11:21 38.166166 -97.075931 267 40119ft 458kts
16-Sep-18 11:22 38.157657 -97.237317 267 40119ft 459kts
16-Sep-18 11:23 38.148977 -97.397837 267 40118ft 459kts
16-Sep-18 11:24 38.140098 -97.558140 267 40111ft 459kts
16-Sep-18 11:25 38.131237 -97.714313 266 40100ft 459kts
16-Sep-18 11:26 38.121873 -97.875373 266 40101ft 459kts
16-Sep-18 11:27 38.113926 -98.009220 266 40098ft 459kts
16-Sep-18 11:28 38.102544 -98.196608 266 40091ft 459kts
16-Sep-18 11:29 38.094222 -98.330479 266 40091ft 459kts
16-Sep-18 11:30 38.082342 -98.517451 266 40094ft 459kts
16-Sep-18 11:31 38.073999 -98.645703 266 40099ft 459kts
16-Sep-18 11:32 38.064396 -98.790597 265 40104ft 459kts
16-Sep-18 11:33 38.054780 -98.933161 266 40103ft 459kts
16-Sep-18 11:34 38.043744 -99.093639 266 40103ft 457kts
16-Sep-18 11:35 38.032586 -99.252934 266 40103ft 457kts
16-Sep-18 11:36 38.021152 -99.412943 266 40218ft 455kts
16-Sep-18 11:37 38.009534 -99.572532 266 40736ft 458kts
16-Sep-18 11:38 37.997608 -99.733056 265 41239ft 457kts
16-Sep-18 11:39 37.985526 -99.892708 265 41745ft 457kts
16-Sep-18 11:40 37.973172 -100.053006 265 42251ft 457kts
16-Sep-18 11:41 37.960628 -100.213015 265 42753ft 457kts
16-Sep-18 11:42 37.947902 -100.372506 265 43106ft 459kts
16-Sep-18 11:43 37.935839 -100.521260 265 43101ft 457kts
16-Sep-18 11:44 37.935839 -100.521260 265 43101ft 457kts
16-Sep-18 11:45 37.930509 -100.586259 265 43100ft 456kts
16-Sep-18 11:46 37.922968 -100.745342 277 43106ft 455kts
16-Sep-18 11:47 37.940099 -100.902952 278 43102ft 453kts
16-Sep-18 11:48 37.957996 -101.060289 278 43100ft 449kts
16-Sep-18 11:49 37.975750 -101.216629 278 43083ft 449kts
16-Sep-18 11:50 37.993317 -101.372811 278 43072ft 449kts
16-Sep-18 11:51 38.010734 -101.529375 278 43072ft 449kts
16-Sep-18 11:52 38.026160 -101.669912 278 43074ft 449kts
16-Sep-18 11:53 38.043119 -101.826202 278 43072ft 449kts
16-Sep-18 11:54 38.059843 -101.982236 278 43061ft 449kts
16-Sep-18 11:55 38.076441 -102.139251 278 43055ft 449kts
16-Sep-18 11:56 38.092782 -102.295599 278 43054ft 449kts
16-Sep-18 11:57 38.108898 -102.451942 278 43053ft 449kts
16-Sep-18 11:58 38.124819 -102.608485 278 43053ft 449kts
16-Sep-18 11:59 38.140285 -102.762692 277 43056ft 450kts
16-Sep-18 12:00 38.155796 -102.919431 277 43055ft 449kts
16-Sep-18 12:01 38.170943 -103.074422 277 43072ft 447kts
16-Sep-18 12:02 38.185908 -103.229823 276 43098ft 443kts
16-Sep-18 12:03 38.200563 -103.384477 276 43098ft 443kts
16-Sep-18 12:04 38.215026 -103.539189 276 43097ft 443kts
16-Sep-18 12:05 38.229362 -103.694529 276 43102ft 443kts
16-Sep-18 12:06 38.243368 -103.849046 276 43101ft 443kts
16-Sep-18 12:07 38.257272 -104.004421 276 43107ft 443kts
16-Sep-18 12:08 38.270963 -104.159665 276 43124ft 443kts
16-Sep-18 12:09 38.284480 -104.315452 275 43098ft 443kts
16-Sep-18 12:10 38.297150 -104.470852 275 43098ft 443kts
16-Sep-18 12:11 38.308229 -104.626998 275 43097ft 443kts
16-Sep-18 12:12 38.318456 -104.774237 274 43101ft 443kts
16-Sep-18 12:13 38.328966 -104.928506 274 43108ft 442kts
16-Sep-18 12:14 38.339078 -105.079728 273 43149ft 438kts
16-Sep-18 12:15 38.348855 -105.229307 273 43242ft 436kts
16-Sep-18 12:16 38.358616 -105.381599 273 43359ft 437kts
16-Sep-18 12:17 38.368295 -105.535262 273 43361ft 437kts
16-Sep-18 12:18 38.377664 -105.687119 273 43368ft 437kts
16-Sep-18 12:19 38.386923 -105.840152 273 43366ft 437kts
16-Sep-18 12:20 38.395996 -105.993605 273 43366ft 437kts
16-Sep-18 12:21 38.404849 -106.148095 273 43365ft 437kts
16-Sep-18 12:22 38.413415 -106.301306 273 43364ft 437kts
16-Sep-18 12:23 38.421744 -106.453174 273 43354ft 437kts
16-Sep-18 12:24 38.429927 -106.605595 273 43343ft 437kts
16-Sep-18 12:25 38.437752 -106.755273 272 43349ft 437kts
16-Sep-18 12:26 38.445634 -106.909033 272 43348ft 435kts
16-Sep-18 12:27 38.452136 -107.059265 268 43348ft 429kts
16-Sep-18 12:28 38.452981 -107.211232 268 43346ft 430kts
16-Sep-18 12:29 38.453572 -107.363551 268 43314ft 430kts
16-Sep-18 12:30 38.453952 -107.514591 268 43237ft 430kts
16-Sep-18 12:31 38.454132 -107.664927 268 43227ft 430kts
16-Sep-18 12:32 38.454122 -107.817008 268 43230ft 430kts
16-Sep-18 12:33 38.453914 -107.969397 268 43228ft 430kts
16-Sep-18 12:34 38.453512 -108.121097 268 43220ft 430kts
16-Sep-18 12:35 38.452904 -108.273543 268 43196ft 430kts
16-Sep-18 12:36 38.452112 -108.425154 268 43063ft 430kts
16-Sep-18 12:37 38.451124 -108.576461 268 42995ft 429kts
16-Sep-18 12:38 38.449960 -108.725777 267 43002ft 430kts
16-Sep-18 12:39 38.448590 -108.877763 267 43000ft 430kts
16-Sep-18 12:40 38.447029 -109.029922 267 43006ft 427kts
16-Sep-18 12:41 38.445320 -109.178715 266 43021ft 417kts
16-Sep-18 12:42 38.443411 -109.325143 266 43056ft 415kts
16-Sep-18 12:43 38.441311 -109.473106 266 43094ft 416kts
16-Sep-18 12:44 38.439050 -109.620178 266 43093ft 416kts
16-Sep-18 12:45 38.436602 -109.766870 265 43102ft 416kts
16-Sep-18 12:46 38.433970 -109.914238 265 43101ft 416kts
16-Sep-18 12:47 38.431144 -110.061261 265 43099ft 416kts
16-Sep-18 12:48 38.428146 -110.208467 265 43096ft 416kts
16-Sep-18 12:49 38.424981 -110.354459 265 43089ft 416kts
16-Sep-18 12:50 38.421600 -110.501758 265 43085ft 416kts
16-Sep-18 12:51 38.418084 -110.648452 265 43084ft 416kts
16-Sep-18 12:52 38.415412 -110.794044 265 43093ft 416kts
16-Sep-18 12:53 38.413057 -110.941072 265 43092ft 415kts
16-Sep-18 12:54 38.410555 -111.086732 265 43089ft 410kts
16-Sep-18 12:55 38.407849 -111.231582 264 43088ft 410kts
16-Sep-18 12:56 38.404992 -111.376175 264 43086ft 410kts
16-Sep-18 12:57 38.402005 -111.518613 264 43234ft 410kts
16-Sep-18 12:58 38.398855 -111.660849 264 43352ft 411kts
16-Sep-18 12:59 38.395591 -111.800783 264 43358ft 410kts
16-Sep-18 13:00 38.392039 -111.945497 264 43356ft 409kts
16-Sep-18 13:01 38.388354 -112.088541 264 43354ft 410kts
16-Sep-18 13:02 38.384463 -112.232750 264 43234ft 410kts
16-Sep-18 13:03 38.380392 -112.377070 264 43137ft 409kts
16-Sep-18 13:04 38.376149 -112.521130 264 43120ft 409kts
16-Sep-18 13:05 38.371782 -112.663464 263 43116ft 409kts
16-Sep-18 13:06 38.367283 -112.804617 263 43120ft 409kts
16-Sep-18 13:07 38.362542 -112.948807 263 43118ft 406kts
16-Sep-18 13:08 38.354573 -113.090167 260 43116ft 401kts
16-Sep-18 13:09 38.344077 -113.230719 260 43111ft 402kts
16-Sep-18 13:10 38.333250 -113.372874 260 43103ft 403kts
16-Sep-18 13:11 38.322307 -113.514128 260 43101ft 403kts
16-Sep-18 13:12 38.311267 -113.654407 259 43101ft 403kts
16-Sep-18 13:13 38.300265 -113.792004 259 43110ft 403kts
16-Sep-18 13:14 38.288810 -113.933153 259 43108ft 403kts
16-Sep-18 13:15 38.277229 -114.073757 259 43120ft 402kts
16-Sep-18 13:16 38.266073 -114.207270 259 43154ft 403kts
16-Sep-18 13:17 38.254741 -114.341039 259 43166ft 403kts
16-Sep-18 13:18 38.245898 -114.464298 261 43165ft 403kts
16-Sep-18 13:19 38.237007 -114.604784 261 43163ft 404kts
16-Sep-18 13:20 38.227903 -114.746313 260 43174ft 403kts
16-Sep-18 13:21 38.218648 -114.887686 260 43172ft 403kts
16-Sep-18 13:22 38.209233 -115.029157 260 43169ft 402kts
16-Sep-18 13:23 38.199663 -115.170047 259 43167ft 398kts
16-Sep-18 13:24 38.190024 -115.309284 259 43166ft 397kts
16-Sep-18 13:25 38.180213 -115.448770 259 43163ft 398kts
16-Sep-18 13:26 38.170214 -115.588675 259 43153ft 398kts
16-Sep-18 13:27 38.160063 -115.728260 259 43153ft 398kts
16-Sep-18 13:28 38.149799 -115.867204 259 43139ft 397kts
16-Sep-18 13:29 38.139317 -116.006823 259 43132ft 397kts
16-Sep-18 13:30 38.128726 -116.145673 259 43130ft 397kts
16-Sep-18 13:31 38.117936 -116.284937 259 43128ft 397kts
16-Sep-18 13:32 38.106971 -116.424298 259 43126ft 397kts
16-Sep-18 13:33 38.095855 -116.563444 259 43124ft 397kts
16-Sep-18 13:34 38.084563 -116.702664 258 43135ft 397kts
16-Sep-18 13:35 38.073116 -116.841677 258 43119ft 397kts
16-Sep-18 13:36 38.061523 -116.980520 258 43087ft 398kts
16-Sep-18 13:37 38.049682 -117.120420 258 43044ft 401kts
16-Sep-18 13:38 38.037620 -117.261031 258 42986ft 401kts
16-Sep-18 13:39 38.025430 -117.400981 258 42917ft 401kts
16-Sep-18 13:40 38.011452 -117.541065 251 42824ft 396kts
16-Sep-18 13:41 37.968743 -117.668182 242 42744ft 392kts
16-Sep-18 13:42 37.930405 -117.771835 242 42722ft 392kts
16-Sep-18 13:43 37.875718 -117.916703 241 42721ft 392kts
16-Sep-18 13:44 37.836442 -118.019847 241 42782ft 392kts
16-Sep-18 13:45 37.781217 -118.164151 241 42808ft 392kts
16-Sep-18 13:46 37.741914 -118.266428 241 42812ft 392kts
16-Sep-18 13:47 37.694265 -118.389956 241 42804ft 392kts
16-Sep-18 13:48 37.646553 -118.513162 241 42782ft 392kts
16-Sep-18 13:49 37.598619 -118.636375 241 42745ft 392kts
16-Sep-18 13:50 37.551373 -118.757369 241 42631ft 392kts
16-Sep-18 13:51 37.503132 -118.880504 241 41367ft 395kts
16-Sep-18 13:52 37.455900 -119.005004 248 39739ft 392kts
16-Sep-18 13:53 37.424579 -119.133592 249 38026ft 378kts
16-Sep-18 13:54 37.395004 -119.256946 249 36373ft 363kts
16-Sep-18 13:55 37.366089 -119.377483 249 34763ft 365kts
16-Sep-18 13:56 37.336825 -119.499090 249 33103ft 371kts
16-Sep-18 13:57 37.306712 -119.623652 248 31387ft 375kts
16-Sep-18 13:58 37.276042 -119.749813 248 29721ft 384kts
16-Sep-18 13:59 37.244467 -119.879161 248 28008ft 392kts
16-Sep-18 14:00 37.221916 -120.010248 256 26266ft 380kts
16-Sep-18 14:01 37.207499 -120.140836 256 24558ft 377kts
16-Sep-18 14:02 37.193680 -120.268363 256 22916ft 371kts
16-Sep-18 14:03 37.179837 -120.395482 256 21298ft 367kts
16-Sep-18 14:04 37.165943 -120.520611 257 19677ft 362kts
16-Sep-18 14:05 37.152096 -120.644603 257 18091ft 357kts
16-Sep-18 14:06 37.138494 -120.765397 257 16564ft 352kts
16-Sep-18 14:07 37.125147 -120.885521 258 15013ft 347kts
16-Sep-18 14:08 37.111983 -121.003667 258 13506ft 340kts
16-Sep-18 14:09 37.099887 -121.118976 270 12022ft 330kts
16-Sep-18 14:10 37.110517 -121.227516 275 10629ft 300kts
16-Sep-18 14:11 37.121248 -121.325491 276 9367ft 275kts
16-Sep-18 14:12 37.131560 -121.418007 276 8195ft 266kts
16-Sep-18 14:13 37.141621 -121.508590 276 7033ft 261kts
16-Sep-18 14:14 37.151404 -121.596820 276 5919ft 258kts
16-Sep-18 14:15 37.160894 -121.682886 275 4827ft 244kts
16-Sep-18 14:16 37.200179 -121.747883 312 3690ft 230kts
16-Sep-18 14:17 37.240635 -121.796536 317 2982ft 183kts
16-Sep-18 14:18 37.276163 -121.835281 319 2136ft 155kts
16-Sep-18 14:19 37.302363 -121.863923 320 1458ft 113kts
16-Sep-18 14:20 37.326104 -121.889823 320 864ft 112kts
16-Sep-18 14:21 37.349231 -121.915123 320 280ft 112kts
16-Sep-18 14:22 37.365932 -121.933431 319 46ft 35kts
16-Sep-18 14:23 37.365386 -121.936993 205 46ft 11kts
16-Sep-18 14:24 37.361637 -121.933174 148 53ft 17kts
16-Sep-18 14:25 37.360164 -121.933280 312 52ft 0kts

Navigation Log

Ident Type
Flight plan parsing failed, navigation log unavailable